Time;durP1;ratioP1;P1;durP2;ratioP2;P2;SDS_P1;SDS_P2;PMS_P1;PMS_P2;Temp;Humidity;BMP_temperature;BMP_pressure;BME280_temperature;BME280_humidity;BME280_pressure;Samples;Min_cycle;Max_cycle;Signal;HPM_P1;HPM_P2
2021/12/08 07:36:16;;;;;;;5.13;0.60;;;5.30;99.90;;;;;;3872431;23;20246;-74
2021/12/08 07:38:45;;;;;;;2.83;0.40;;;5.30;99.90;;;;;;4969030;28;20239;-75
2021/12/08 07:41:17;;;;;;;1.90;0.53;;;5.40;99.90;;;;;;4964759;28;20229;-80
2021/12/08 07:43:48;;;;;;;3.43;0.40;;;5.40;99.90;;;;;;4967090;28;20231;-79
2021/12/08 07:46:19;;;;;;;2.23;0.43;;;5.50;99.90;;;;;;4963507;28;20566;-80
2021/12/08 07:48:52;;;;;;;1.87;0.40;;;5.60;99.90;;;;;;4958483;28;20200;-76
2021/12/08 07:51:24;;;;;;;2.03;0.40;;;5.70;99.90;;;;;;4963081;28;20203;-79
2021/12/08 07:53:51;;;;;;;1.23;0.43;;;5.70;99.90;;;;;;4957166;28;20232;-78
2021/12/08 07:56:21;;;;;;;3.80;0.40;;;5.70;99.90;;;;;;4966742;28;20208;-76
2021/12/08 07:58:52;;;;;;;3.07;0.40;;;5.70;99.90;;;;;;4974409;28;20207;-78
2021/12/08 08:01:22;;;;;;;3.73;0.30;;;5.70;99.90;;;;;;4969573;28;20200;-78
2021/12/08 08:03:50;;;;;;;0.90;0.73;;;5.70;99.90;;;;;;4962267;28;20690;-78
2021/12/08 08:06:21;;;;;;;2.27;0.57;;;5.70;99.90;;;;;;4967751;28;20223;-78
2021/12/08 08:08:48;;;;;;;1.77;0.63;;;5.70;99.90;;;;;;4953959;28;20208;-78
2021/12/08 08:11:19;;;;;;;2.00;0.50;;;5.70;99.90;;;;;;4954675;28;20211;-74
2021/12/08 08:13:46;;;;;;;0.43;0.30;;;5.70;99.90;;;;;;4954528;28;20238;-74
2021/12/08 08:16:17;;;;;;;2.97;0.33;;;5.70;99.90;;;;;;4953140;28;20211;-78
2021/12/08 08:18:49;;;;;;;4.17;0.40;;;5.80;99.90;;;;;;4954509;28;20220;-76
2021/12/08 08:21:19;;;;;;;2.30;0.33;;;5.80;99.90;;;;;;4954692;28;20204;-78
2021/12/08 08:23:47;;;;;;;4.20;0.50;;;5.80;99.90;;;;;;4954465;28;20235;-72
2021/12/08 08:26:16;;;;;;;0.80;0.73;;;5.80;99.90;;;;;;4954800;28;20235;-76
2021/12/08 08:28:48;;;;;;;3.00;0.83;;;5.90;99.90;;;;;;4954768;28;20215;-77
2021/12/08 08:31:17;;;;;;;6.33;0.90;;;6.00;99.90;;;;;;4954639;28;20215;-75
2021/12/08 08:33:46;;;;;;;0.97;0.40;;;6.10;99.90;;;;;;4956964;28;20230;-77
2021/12/08 08:36:17;;;;;;;2.27;0.50;;;6.10;99.90;;;;;;4958904;28;20234;-74
2021/12/08 08:38:50;;;;;;;5.83;0.53;;;6.10;99.90;;;;;;4957986;28;20216;-78
2021/12/08 08:41:21;;;;;;;1.80;0.50;;;6.10;99.90;;;;;;4961958;28;20539;-74
2021/12/08 08:43:48;;;;;;;1.00;0.37;;;6.20;99.90;;;;;;4962324;28;20230;-74
2021/12/08 08:46:19;;;;;;;2.50;0.43;;;6.20;99.90;;;;;;4968077;28;20226;-73
2021/12/08 08:48:49;;;;;;;2.53;0.50;;;6.20;99.90;;;;;;4973811;28;20203;-73
2021/12/08 08:51:23;;;;;;;2.00;0.70;;;6.10;99.90;;;;;;4973467;28;20213;-74
2021/12/08 08:53:54;;;;;;;6.07;0.40;;;6.10;99.90;;;;;;4973576;28;20231;-74
2021/12/08 08:56:24;;;;;;;1.90;0.63;;;6.00;99.90;;;;;;4954598;28;20230;-69
2021/12/08 08:58:54;;;;;;;2.67;0.77;;;6.00;99.90;;;;;;4968656;28;20666;-72
2021/12/08 09:01:26;;;;;;;6.13;0.40;;;6.10;99.90;;;;;;4973877;28;20214;-74
2021/12/08 09:03:56;;;;;;;4.07;0.50;;;6.20;99.90;;;;;;4973746;28;20230;-72
2021/12/08 09:06:31;;;;;;;1.10;0.40;;;6.30;99.90;;;;;;4967087;28;20241;-75
2021/12/08 09:09:02;;;;;;;2.53;0.40;;;6.40;99.90;;;;;;4954412;28;20203;-71
2021/12/08 09:11:32;;;;;;;3.40;0.50;;;6.50;99.90;;;;;;4954513;28;20211;-76
2021/12/08 09:14:03;;;;;;;1.57;0.53;;;6.50;99.90;;;;;;4954335;28;20591;-76
2021/12/08 09:16:35;;;;;;;2.87;0.80;;;6.40;99.90;;;;;;4954371;28;20211;-78
2021/12/08 09:19:09;;;;;;;3.03;0.57;;;6.40;99.90;;;;;;4954738;28;20214;-78
2021/12/08 09:21:43;;;;;;;3.60;0.60;;;6.40;99.90;;;;;;4954187;28;20209;-78
2021/12/08 09:24:18;;;;;;;3.03;0.70;;;6.30;99.90;;;;;;4955245;28;20230;-79
2021/12/08 09:26:52;;;;;;;2.97;0.30;;;6.20;99.90;;;;;;4958008;28;20231;-75
2021/12/08 09:29:23;;;;;;;3.60;0.67;;;6.20;99.90;;;;;;4958398;28;20214;-74
2021/12/08 09:31:57;;;;;;;0.90;0.30;;;6.10;99.90;;;;;;4968698;28;20203;-73
2021/12/08 09:34:27;;;;;;;0.83;0.40;;;6.20;99.90;;;;;;4965255;28;20282;-73
2021/12/08 09:36:57;;;;;;;4.33;0.60;;;6.20;99.90;;;;;;4957643;28;20220;-74
2021/12/08 09:39:31;;;;;;;2.40;0.50;;;6.20;99.90;;;;;;4957841;28;20212;-75
2021/12/08 09:42:03;;;;;;;2.83;0.40;;;6.20;99.90;;;;;;4957752;28;20216;-72
2021/12/08 09:44:37;;;;;;;3.03;0.50;;;6.30;99.90;;;;;;4957730;28;20228;-72
2021/12/08 09:47:04;;;;;;;3.37;0.67;;;6.30;99.90;;;;;;4957358;28;20239;-72
2021/12/08 09:49:32;;;;;;;0.60;0.40;;;6.30;99.90;;;;;;4957531;28;20212;-70
2021/12/08 09:52:05;;;;;;;3.60;1.03;;;6.30;99.90;;;;;;4957672;28;20646;-71
2021/12/08 09:54:33;;;;;;;1.07;0.30;;;6.30;99.90;;;;;;4957812;28;20228;-71
2021/12/08 09:57:06;;;;;;;1.53;0.47;;;6.30;99.90;;;;;;4957419;28;20219;-74
2021/12/08 09:59:33;;;;;;;1.67;0.40;;;6.30;99.90;;;;;;4957635;28;20212;-71
2021/12/08 10:02:04;;;;;;;2.83;0.43;;;6.40;99.90;;;;;;4957221;28;20244;-73
2021/12/08 10:04:30;;;;;;;1.37;0.30;;;6.40;99.90;;;;;;4957314;28;20307;-74
2021/12/08 10:07:02;;;;;;;2.00;0.30;;;6.30;99.90;;;;;;4957124;28;20736;-73
2021/12/08 10:09:29;;;;;;;2.40;0.30;;;6.30;99.90;;;;;;4957428;28;20212;-73
2021/12/08 10:11:58;;;;;;;3.20;0.47;;;6.30;99.90;;;;;;4956705;28;20214;-71
2021/12/08 10:14:25;;;;;;;8.17;0.83;;;6.40;99.90;;;;;;4957370;28;20699;-72
2021/12/08 10:16:54;;;;;;;2.03;0.60;;;6.40;99.90;;;;;;4956711;28;20204;-74
2021/12/08 10:19:22;;;;;;;2.40;0.40;;;6.40;99.90;;;;;;4957088;28;20216;-74
2021/12/08 10:21:49;;;;;;;5.47;0.70;;;6.40;99.90;;;;;;4956922;28;20208;-74
2021/12/08 10:24:19;;;;;;;1.47;0.60;;;6.50;99.90;;;;;;4956805;28;20711;-73
2021/12/08 10:26:47;;;;;;;1.10;0.20;;;6.50;99.90;;;;;;4956503;28;20227;-74
2021/12/08 10:29:16;;;;;;;1.70;0.40;;;6.50;99.90;;;;;;4956532;28;20562;-74
2021/12/08 10:31:45;;;;;;;2.43;0.50;;;6.60;99.90;;;;;;4966697;28;20536;-74
2021/12/08 10:34:22;;;;;;;2.00;0.40;;;6.60;99.90;;;;;;4976070;28;20238;-74
2021/12/08 10:36:53;;;;;;;4.83;0.87;;;6.60;99.90;;;;;;4965269;28;20302;-75
2021/12/08 10:39:32;;;;;;;2.47;0.30;;;6.70;99.90;;;;;;4956833;28;20207;-74
2021/12/08 10:42:08;;;;;;;4.37;0.43;;;6.60;99.90;;;;;;4956492;28;20663;-73
2021/12/08 10:44:44;;;;;;;1.90;0.20;;;6.60;99.90;;;;;;4956522;28;20259;-73
2021/12/08 10:47:12;;;;;;;1.63;0.50;;;6.50;99.90;;;;;;4956261;28;20290;-72
2021/12/08 10:55:18;;;;;;;0.87;0.30;;;6.50;99.90;;;;;;4955396;29;20239;-77
2021/12/08 10:57:49;;;;;;;0.67;0.33;;;6.50;99.90;;;;;;4954442;28;20274;-76
2021/12/08 11:00:21;;;;;;;0.70;0.40;;;6.50;99.90;;;;;;4955318;28;20228;-76
2021/12/08 11:02:51;;;;;;;1.63;0.50;;;6.60;99.90;;;;;;4954741;28;20255;-75
2021/12/08 11:05:41;;;;;;;0.50;0.30;;;6.70;99.90;;;;;;4954454;28;20305;-72
2021/12/08 11:08:13;;;;;;;0.80;0.27;;;6.70;99.90;;;;;;4954946;28;20212;-73
2021/12/08 11:10:45;;;;;;;0.80;0.57;;;6.60;99.90;;;;;;4961940;28;20302;-77
2021/12/08 11:13:12;;;;;;;1.57;0.47;;;6.60;99.90;;;;;;4973752;28;20227;-79
2021/12/08 11:15:40;;;;;;;3.70;1.03;;;6.70;99.90;;;;;;4957597;28;20207;-77
2021/12/08 11:18:14;;;;;;;1.40;0.33;;;6.80;99.90;;;;;;4954198;28;20214;-77
2021/12/08 11:20:44;;;;;;;2.43;0.60;;;6.80;99.90;;;;;;4954286;28;20208;-74
2021/12/08 11:23:15;;;;;;;1.97;0.50;;;6.80;99.90;;;;;;4954525;28;20801;-75
2021/12/08 11:25:45;;;;;;;2.00;0.40;;;7.00;99.90;;;;;;4954597;28;20259;-78
2021/12/08 11:28:19;;;;;;;1.27;0.40;;;7.00;99.90;;;;;;4954447;28;20216;-79
2021/12/08 11:30:47;;;;;;;2.00;0.33;;;6.90;99.90;;;;;;4956970;28;20247;-77
2021/12/08 11:33:17;;;;;;;1.07;0.50;;;6.80;99.90;;;;;;4974262;28;20227;-78
2021/12/08 11:35:44;;;;;;;1.90;0.47;;;6.80;99.90;;;;;;4973894;28;20301;-76
2021/12/08 11:38:11;;;;;;;2.73;0.70;;;6.90;99.90;;;;;;4955692;28;20574;-75
2021/12/08 11:40:38;;;;;;;3.53;0.97;;;7.00;99.90;;;;;;4955165;28;20208;-76
2021/12/08 11:43:13;;;;;;;1.87;0.60;;;6.90;99.90;;;;;;4971732;28;20230;-76
2021/12/08 11:45:42;;;;;;;2.73;0.43;;;6.70;99.90;;;;;;4973852;28;20213;-76
2021/12/08 11:48:23;;;;;;;1.57;0.67;;;6.70;99.90;;;;;;4972493;28;20277;-76
2021/12/08 11:51:06;;;;;;;5.07;0.80;;;6.70;99.90;;;;;;4974919;28;20207;-76
2021/12/08 11:53:36;;;;;;;1.00;0.40;;;6.80;99.90;;;;;;4955138;28;20238;-76
2021/12/08 11:56:03;;;;;;;1.67;0.50;;;6.70;99.90;;;;;;4954786;28;20238;-76
2021/12/08 11:58:30;;;;;;;3.07;0.50;;;6.60;99.90;;;;;;4970475;28;20204;-76
2021/12/08 12:00:58;;;;;;;0.80;0.60;;;6.40;99.90;;;;;;4974398;28;20203;-77
2021/12/08 12:03:26;;;;;;;4.07;0.67;;;6.40;99.90;;;;;;4974199;28;20245;-77
2021/12/08 12:05:53;;;;;;;1.27;0.50;;;6.30;99.90;;;;;;4970553;28;20245;-77
2021/12/08 12:08:23;;;;;;;1.27;0.37;;;6.20;99.90;;;;;;4953827;28;20204;-76
2021/12/08 12:10:53;;;;;;;2.30;0.60;;;6.30;99.90;;;;;;4958672;28;20199;-76
2021/12/08 12:13:20;;;;;;;2.67;0.60;;;6.30;99.90;;;;;;4965418;28;20216;-76
2021/12/08 12:15:49;;;;;;;1.00;0.40;;;6.50;99.90;;;;;;4954342;28;20219;-76
2021/12/08 12:18:19;;;;;;;1.00;0.60;;;6.70;99.90;;;;;;4954417;28;20214;-77
2021/12/08 12:20:51;;;;;;;1.77;0.40;;;6.90;99.90;;;;;;4954264;28;20200;-76
2021/12/08 12:23:30;;;;;;;1.97;0.63;;;7.20;99.90;;;;;;4958592;28;20725;-77
2021/12/08 12:26:09;;;;;;;1.40;0.30;;;7.30;99.90;;;;;;4954143;28;20227;-76
2021/12/08 12:28:56;;;;;;;4.90;1.03;;;7.40;99.90;;;;;;4953612;28;20596;-76
2021/12/08 12:31:27;;;;;;;3.80;0.50;;;7.20;99.90;;;;;;4954463;28;20599;-76
2021/12/08 12:33:55;;;;;;;3.80;0.83;;;7.10;99.90;;;;;;4966364;28;20223;-76
2021/12/08 12:36:27;;;;;;;0.70;0.40;;;7.00;99.90;;;;;;4954284;28;20223;-76
2021/12/08 12:39:09;;;;;;;1.57;0.60;;;7.00;99.90;;;;;;4953942;28;20565;-77
2021/12/08 12:41:36;;;;;;;8.37;0.80;;;6.90;99.90;;;;;;4952576;28;20208;-77
2021/12/08 12:44:21;;;;;;;4.37;0.90;;;7.00;99.90;;;;;;4952691;28;20703;-75
2021/12/08 12:47:23;;;;;;;0.60;0.27;;;7.00;99.90;;;;;;4952572;28;20231;-76
2021/12/08 12:50:05;;;;;;;2.33;0.90;;;7.10;99.90;;;;;;4952662;28;20247;-77
2021/12/08 12:52:37;;;;;;;5.40;0.70;;;7.10;99.90;;;;;;4952316;28;20214;-76
2021/12/08 12:55:09;;;;;;;3.00;0.70;;;7.10;99.90;;;;;;4953247;28;20607;-77
2021/12/08 12:58:09;;;;;;;3.80;0.70;;;7.10;99.90;;;;;;4954682;28;20225;-76
2021/12/08 13:00:38;;;;;;;1.50;0.63;;;7.20;99.90;;;;;;4958186;28;20214;-75
2021/12/08 13:03:05;;;;;;;2.10;0.80;;;7.10;99.90;;;;;;4958500;28;20231;-76
2021/12/08 13:05:46;;;;;;;4.70;0.70;;;7.10;99.90;;;;;;4958665;28;20208;-76
2021/12/08 13:08:29;;;;;;;0.90;0.40;;;7.00;99.90;;;;;;4958219;28;20586;-77
2021/12/08 13:10:56;;;;;;;3.90;0.50;;;7.00;99.90;;;;;;4958325;28;20207;-76
2021/12/08 13:13:23;;;;;;;2.73;0.50;;;7.10;99.90;;;;;;4958277;28;20238;-76
2021/12/08 13:15:50;;;;;;;5.33;0.70;;;7.20;99.90;;;;;;4958560;28;20587;-77
2021/12/08 13:18:18;;;;;;;0.93;0.50;;;7.30;99.90;;;;;;4958327;28;20215;-76
2021/12/08 13:20:50;;;;;;;2.20;0.47;;;7.40;99.90;;;;;;4958249;28;20204;-77
2021/12/08 13:23:21;;;;;;;1.60;0.60;;;7.40;99.90;;;;;;4957895;28;20291;-77
2021/12/08 13:25:57;;;;;;;3.13;0.70;;;7.40;99.90;;;;;;4958408;28;20212;-76
2021/12/08 13:28:30;;;;;;;4.57;0.57;;;7.40;99.90;;;;;;4957846;28;20217;-77
2021/12/08 13:31:13;;;;;;;0.70;0.50;;;7.30;99.90;;;;;;4957922;28;20709;-76
2021/12/08 13:33:43;;;;;;;1.77;0.43;;;7.30;99.90;;;;;;4958494;28;20232;-76
2021/12/08 13:36:34;;;;;;;2.53;0.53;;;7.30;99.90;;;;;;4958265;28;20217;-77
2021/12/08 13:39:15;;;;;;;2.07;0.60;;;7.50;99.90;;;;;;4957843;28;20204;-76
2021/12/08 13:41:52;;;;;;;1.90;0.50;;;7.60;99.90;;;;;;4957932;28;20214;-76
2021/12/08 13:44:22;;;;;;;2.57;0.70;;;7.70;99.90;;;;;;4957562;28;20232;-76
2021/12/08 13:46:50;;;;;;;1.03;0.40;;;7.80;99.90;;;;;;4957729;28;20238;-77
2021/12/08 13:49:20;;;;;;;6.00;0.57;;;7.60;99.90;;;;;;4957822;28;20208;-77
2021/12/08 13:52:18;;;;;;;2.43;0.70;;;7.50;99.90;;;;;;4958085;28;20299;-80
2021/12/08 13:54:49;;;;;;;3.30;0.83;;;7.40;99.90;;;;;;4956344;29;20204;-77
2021/12/08 13:57:37;;;;;;;2.23;0.50;;;7.30;99.90;;;;;;4964923;28;20266;-77
2021/12/08 14:00:23;;;;;;;3.27;0.87;;;7.40;99.90;;;;;;4975497;28;20581;-77
2021/12/08 14:02:53;;;;;;;0.80;0.50;;;7.30;99.90;;;;;;4957298;28;20246;-77
2021/12/08 14:05:23;;;;;;;3.70;0.67;;;7.10;99.90;;;;;;4956557;28;20256;-76
2021/12/08 14:07:53;;;;;;;3.60;0.50;;;7.00;99.90;;;;;;4956704;28;20235;-76
2021/12/08 14:10:25;;;;;;;3.20;0.50;;;6.90;99.90;;;;;;4968391;28;20634;-77
2021/12/08 14:12:55;;;;;;;2.83;0.40;;;6.80;99.90;;;;;;4956758;28;20224;-77
2021/12/08 14:15:25;;;;;;;1.07;0.53;;;6.60;99.90;;;;;;4956975;28;20671;-76
2021/12/08 14:17:52;;;;;;;6.33;0.50;;;6.60;99.90;;;;;;4956617;28;20212;-76
2021/12/08 14:20:35;;;;;;;3.47;0.90;;;6.60;99.90;;;;;;4956150;28;20208;-77
2021/12/08 14:23:04;;;;;;;3.17;0.50;;;6.60;99.90;;;;;;4957036;28;20231;-77
2021/12/08 14:25:35;;;;;;;1.80;0.47;;;6.60;99.90;;;;;;4956936;28;20215;-77
2021/12/08 14:28:17;;;;;;;2.33;0.70;;;6.60;99.90;;;;;;4956684;28;20235;-77
2021/12/08 14:30:47;;;;;;;2.40;0.63;;;6.60;99.90;;;;;;4955883;28;20648;-77
2021/12/08 14:33:13;;;;;;;6.23;0.90;;;6.50;99.90;;;;;;4956813;28;20263;-78
2021/12/08 14:35:40;;;;;;;2.20;0.70;;;6.40;99.90;;;;;;4952749;28;20226;-77
2021/12/08 14:38:07;;;;;;;0.53;0.50;;;6.40;99.90;;;;;;4955009;28;20212;-81
2021/12/08 14:40:36;;;;;;;3.03;0.97;;;6.30;99.90;;;;;;4955084;28;20545;-74
2021/12/08 14:43:03;;;;;;;1.70;0.53;;;6.30;99.90;;;;;;4954808;28;20228;-77
2021/12/08 14:45:32;;;;;;;2.77;0.50;;;6.40;99.90;;;;;;4960520;28;20242;-77
2021/12/08 14:47:59;;;;;;;2.37;0.97;;;6.30;99.90;;;;;;4967772;28;20247;-77
2021/12/08 14:50:26;;;;;;;2.20;0.77;;;6.40;99.90;;;;;;4970063;28;20299;-81
2021/12/08 14:52:53;;;;;;;1.30;0.70;;;6.50;99.90;;;;;;4968841;28;20706;-77
2021/12/08 14:55:22;;;;;;;1.33;0.80;;;6.60;99.90;;;;;;4967183;28;20220;-76
2021/12/08 14:57:52;;;;;;;5.07;0.60;;;6.70;99.90;;;;;;4954003;28;20220;-80
2021/12/08 15:00:22;;;;;;;2.10;0.60;;;6.70;99.90;;;;;;4958362;28;20208;-76
2021/12/08 15:03:05;;;;;;;2.13;0.60;;;6.70;99.90;;;;;;4954786;28;20695;-76
2021/12/08 15:05:32;;;;;;;2.47;0.50;;;6.60;99.90;;;;;;4961259;28;20680;-73
2021/12/08 15:08:08;;;;;;;2.67;0.60;;;6.60;99.90;;;;;;4954723;28;20238;-80
2021/12/08 15:10:35;;;;;;;1.80;0.50;;;6.60;99.90;;;;;;4954409;28;20214;-75
2021/12/08 15:13:13;;;;;;;1.70;0.53;;;6.70;99.90;;;;;;4955864;28;20794;-76
2021/12/08 15:15:41;;;;;;;3.03;0.70;;;6.70;99.90;;;;;;4955733;28;20670;-75
2021/12/08 15:18:10;;;;;;;3.17;0.53;;;6.70;99.90;;;;;;4956060;28;20216;-74
2021/12/08 15:20:39;;;;;;;8.20;0.73;;;6.70;99.90;;;;;;4956288;28;20574;-76
2021/12/08 15:23:12;;;;;;;1.50;0.60;;;6.70;99.90;;;;;;4955807;28;20255;-76
2021/12/08 15:25:40;;;;;;;1.97;0.67;;;6.70;99.90;;;;;;4955862;28;20307;-76
2021/12/08 15:28:15;;;;;;;2.40;0.80;;;6.80;99.90;;;;;;4955542;28;20259;-75
2021/12/08 15:30:46;;;;;;;4.23;1.00;;;6.80;99.90;;;;;;4955422;28;20208;-76
2021/12/08 15:33:14;;;;;;;3.70;0.87;;;6.80;99.90;;;;;;4955759;28;20232;-76
2021/12/08 15:35:42;;;;;;;3.27;0.60;;;6.80;99.90;;;;;;4955597;28;20216;-73
2021/12/08 15:38:10;;;;;;;1.20;0.57;;;6.80;99.90;;;;;;4955211;28;20694;-76
2021/12/08 15:40:40;;;;;;;5.17;0.70;;;6.90;99.90;;;;;;4955512;28;20210;-74
2021/12/08 15:43:10;;;;;;;4.13;0.60;;;7.00;99.90;;;;;;4955224;28;20568;-76
2021/12/08 15:45:40;;;;;;;0.90;0.53;;;6.90;99.90;;;;;;4961796;28;20199;-75
2021/12/08 15:48:12;;;;;;;3.17;0.60;;;7.00;99.90;;;;;;4974785;28;20242;-73
2021/12/08 15:50:44;;;;;;;1.57;0.70;;;6.80;99.90;;;;;;4968681;28;20682;-73
2021/12/08 15:53:13;;;;;;;2.00;0.53;;;6.70;99.90;;;;;;4954747;28;20720;-76
2021/12/08 15:55:40;;;;;;;1.57;0.40;;;6.50;99.90;;;;;;4955244;28;20207;-75
2021/12/08 15:58:09;;;;;;;3.50;0.70;;;6.40;99.90;;;;;;4955354;28;20214;-76
2021/12/08 16:00:44;;;;;;;1.80;0.60;;;6.30;99.90;;;;;;4955429;28;20215;-76
2021/12/08 16:03:12;;;;;;;1.03;0.53;;;6.20;99.90;;;;;;4955440;28;20232;-76
2021/12/08 16:05:39;;;;;;;1.90;0.80;;;6.20;99.90;;;;;;4955302;28;20215;-76
2021/12/08 16:08:06;;;;;;;2.87;0.70;;;6.20;99.90;;;;;;4955331;28;20236;-76
2021/12/08 16:10:35;;;;;;;2.50;0.77;;;6.10;99.90;;;;;;4955537;28;20214;-76
2021/12/08 16:13:04;;;;;;;2.37;0.60;;;6.00;99.90;;;;;;4955359;28;20232;-76
2021/12/08 16:15:42;;;;;;;3.50;1.00;;;6.00;99.90;;;;;;4954942;28;20204;-76
2021/12/08 16:18:09;;;;;;;3.03;1.23;;;5.90;99.90;;;;;;4954822;28;20571;-74
2021/12/08 16:20:36;;;;;;;4.40;1.10;;;5.90;99.90;;;;;;4954680;28;20218;-75
2021/12/08 16:23:04;;;;;;;4.03;1.17;;;5.90;99.90;;;;;;4953638;28;20236;-73
2021/12/08 16:25:31;;;;;;;3.63;2.27;;;6.00;99.90;;;;;;4954505;28;20219;-76
2021/12/08 16:27:59;;;;;;;2.33;1.40;;;5.90;99.90;;;;;;4954499;28;20244;-74
2021/12/08 16:30:27;;;;;;;1.87;0.80;;;5.90;99.90;;;;;;4954969;28;20307;-76
2021/12/08 16:32:55;;;;;;;5.57;0.80;;;5.80;99.90;;;;;;4954074;28;20232;-76
2021/12/08 16:35:22;;;;;;;3.50;0.60;;;5.80;99.90;;;;;;4953616;28;20214;-75
2021/12/08 16:37:49;;;;;;;2.30;1.00;;;5.90;99.90;;;;;;4954558;28;20212;-75
2021/12/08 16:43:03;;;;;;;3.60;0.70;;;5.80;99.90;;;;;;4954063;29;20232;-77
2021/12/08 16:45:34;;;;;;;1.23;0.63;;;5.70;99.90;;;;;;4953687;28;20663;-76
2021/12/08 16:48:05;;;;;;;2.50;0.70;;;5.70;99.90;;;;;;4953333;28;20709;-76
2021/12/08 16:50:32;;;;;;;2.13;0.70;;;5.70;99.90;;;;;;4954661;28;20219;-77
2021/12/08 16:53:01;;;;;;;1.73;0.60;;;5.70;99.90;;;;;;4954511;28;20227;-75
2021/12/08 16:55:29;;;;;;;5.30;0.97;;;5.70;99.90;;;;;;4954489;28;20216;-75
2021/12/08 16:57:58;;;;;;;2.17;0.97;;;5.70;99.90;;;;;;4950087;28;20212;-75
2021/12/08 17:00:29;;;;;;;5.30;0.80;;;5.60;99.90;;;;;;4954400;28;20295;-72
2021/12/08 17:02:57;;;;;;;6.07;1.23;;;5.60;99.90;;;;;;4954242;28;20239;-75
2021/12/08 17:05:27;;;;;;;1.77;0.93;;;5.70;99.90;;;;;;4954430;28;20208;-76
2021/12/08 17:07:54;;;;;;;3.73;1.07;;;5.70;99.90;;;;;;4954512;28;20232;-75
2021/12/08 17:10:21;;;;;;;6.97;1.07;;;5.60;99.90;;;;;;4954324;28;20284;-76
2021/12/08 17:12:48;;;;;;;2.00;0.80;;;5.60;99.90;;;;;;4953766;28;20224;-76
2021/12/08 17:15:15;;;;;;;6.53;1.20;;;5.50;99.90;;;;;;4954428;28;20208;-75
2021/12/08 17:17:42;;;;;;;6.87;1.00;;;5.50;99.90;;;;;;4954286;28;20218;-75
2021/12/08 17:20:12;;;;;;;5.27;0.90;;;5.40;99.90;;;;;;4954015;28;20219;-75
2021/12/08 17:22:40;;;;;;;4.60;1.47;;;5.40;99.90;;;;;;4953937;28;20219;-75
2021/12/08 17:25:09;;;;;;;2.17;0.80;;;5.40;99.90;;;;;;4954561;28;20212;-74
2021/12/08 17:27:36;;;;;;;3.90;1.00;;;5.40;99.90;;;;;;4954305;28;20725;-75
2021/12/08 17:30:05;;;;;;;5.27;1.30;;;5.40;99.90;;;;;;4952613;28;20714;-77
2021/12/08 17:32:32;;;;;;;5.00;0.87;;;5.40;99.90;;;;;;4952918;28;20218;-75
2021/12/08 17:34:58;;;;;;;2.50;0.90;;;5.40;99.90;;;;;;4953480;28;20215;-75
2021/12/08 17:37:26;;;;;;;1.60;0.67;;;5.30;99.90;;;;;;4953380;28;20220;-75
2021/12/08 17:39:54;;;;;;;5.23;1.30;;;5.40;99.90;;;;;;4953036;28;20204;-72
2021/12/08 17:42:21;;;;;;;2.40;1.10;;;5.20;99.90;;;;;;4952891;28;20208;-74
2021/12/08 17:44:48;;;;;;;2.03;0.90;;;5.20;99.90;;;;;;4957619;28;20307;-75
2021/12/08 17:47:15;;;;;;;6.53;1.23;;;5.30;99.90;;;;;;4976265;28;20210;-77
2021/12/08 17:49:42;;;;;;;3.00;1.13;;;5.30;99.90;;;;;;4976123;28;20593;-78
2021/12/08 17:52:09;;;;;;;6.87;1.30;;;5.30;99.90;;;;;;4975956;28;20207;-78
2021/12/08 17:54:36;;;;;;;6.13;1.10;;;5.30;99.90;;;;;;4975462;28;20710;-77
2021/12/08 17:57:06;;;;;;;2.87;1.07;;;5.30;99.90;;;;;;4976313;28;20211;-78
2021/12/08 17:59:33;;;;;;;6.97;1.03;;;5.20;99.90;;;;;;4976164;28;20218;-75
2021/12/08 18:02:00;;;;;;;2.73;1.43;;;5.20;99.90;;;;;;4962052;28;20215;-76
2021/12/08 18:04:27;;;;;;;3.33;1.13;;;5.20;99.90;;;;;;4956747;28;20232;-74
2021/12/08 18:06:54;;;;;;;4.67;1.40;;;5.20;99.90;;;;;;4956506;28;20574;-75
2021/12/08 18:09:21;;;;;;;3.70;1.47;;;5.10;99.90;;;;;;4956861;28;20247;-78
2021/12/08 18:11:49;;;;;;;4.83;1.00;;;5.10;99.90;;;;;;4956153;28;20214;-77
2021/12/08 18:14:17;;;;;;;2.87;1.27;;;5.10;99.90;;;;;;4956380;28;20227;-77
2021/12/08 18:16:46;;;;;;;5.90;1.30;;;5.10;99.90;;;;;;4956352;28;20230;-77
2021/12/08 18:19:14;;;;;;;6.17;1.20;;;5.20;99.90;;;;;;4956475;28;20204;-77
2021/12/08 18:21:42;;;;;;;7.13;1.20;;;5.20;99.90;;;;;;4956241;28;20212;-77
2021/12/08 18:24:09;;;;;;;5.33;1.23;;;5.10;99.90;;;;;;4956026;28;20741;-76
2021/12/08 18:26:37;;;;;;;8.23;1.20;;;5.10;99.90;;;;;;4971628;28;20208;-77
2021/12/08 18:29:05;;;;;;;1.73;0.90;;;5.10;99.90;;;;;;4975596;28;20242;-76
2021/12/08 18:31:34;;;;;;;6.47;1.73;;;5.10;99.90;;;;;;4975945;28;20215;-78
2021/12/08 18:34:03;;;;;;;7.07;1.53;;;5.10;99.90;;;;;;4975265;28;20235;-77
2021/12/08 18:36:35;;;;;;;4.73;1.23;;;5.10;99.90;;;;;;4975329;28;20227;-77
2021/12/08 18:39:05;;;;;;;3.70;1.60;;;5.10;99.90;;;;;;4975044;28;20222;-77
2021/12/08 18:41:32;;;;;;;4.67;1.20;;;5.10;99.90;;;;;;4974357;28;20208;-77
2021/12/08 18:44:00;;;;;;;3.43;1.43;;;5.10;99.90;;;;;;4956506;28;20699;-76
2021/12/08 18:46:28;;;;;;;4.33;1.50;;;5.10;99.90;;;;;;4955662;28;20212;-77
2021/12/08 18:48:56;;;;;;;3.90;1.10;;;5.10;99.90;;;;;;4955506;28;20243;-77
2021/12/08 18:51:26;;;;;;;6.07;1.10;;;5.10;99.90;;;;;;4965330;28;20210;-77
2021/12/08 18:53:56;;;;;;;7.77;1.40;;;5.00;99.90;;;;;;4974948;28;20746;-76
2021/12/08 18:56:24;;;;;;;4.33;1.20;;;5.00;99.90;;;;;;4968794;28;20207;-78
2021/12/08 18:58:52;;;;;;;1.90;1.43;;;5.00;99.90;;;;;;4975080;28;20207;-77
2021/12/08 19:01:25;;;;;;;4.97;1.30;;;4.90;99.90;;;;;;4970936;28;20208;-75
2021/12/08 19:03:52;;;;;;;3.00;1.50;;;4.90;99.90;;;;;;4954859;28;20723;-74
2021/12/08 19:06:21;;;;;;;4.60;1.73;;;4.90;99.90;;;;;;4955547;28;20212;-79
2021/12/08 19:08:49;;;;;;;1.97;1.03;;;4.90;99.90;;;;;;4955861;28;20239;-75
2021/12/08 19:11:17;;;;;;;4.67;1.77;;;4.90;99.90;;;;;;4955850;28;20295;-75
2021/12/08 19:13:44;;;;;;;6.00;1.37;;;4.90;99.90;;;;;;4955836;28;20228;-77
2021/12/08 19:16:12;;;;;;;2.27;1.27;;;4.90;99.90;;;;;;4955826;28;20212;-78
2021/12/08 19:18:42;;;;;;;4.83;1.73;;;4.90;99.90;;;;;;4955554;28;20258;-75
2021/12/08 19:21:09;;;;;;;3.73;1.00;;;4.90;99.90;;;;;;4955450;28;20220;-75
2021/12/08 19:23:38;;;;;;;4.27;1.37;;;4.90;99.90;;;;;;4967691;28;20231;-76
2021/12/08 19:26:05;;;;;;;6.93;1.63;;;4.80;99.90;;;;;;4974665;28;20211;-76
2021/12/08 19:28:35;;;;;;;4.40;1.30;;;4.80;99.90;;;;;;4965790;28;20239;-75
2021/12/08 19:31:02;;;;;;;3.43;1.57;;;4.90;99.90;;;;;;4962324;28;20203;-76
2021/12/08 19:33:29;;;;;;;6.57;1.57;;;4.80;99.90;;;;;;4969390;28;20234;-75
